Time;durP1;ratioP1;P1;durP2;ratioP2;P2;SDS_P1;SDS_P2;PMS_P1;PMS_P2;Temp;Humidity;BMP_temperature;BMP_pressure;BME280_temperature;BME280_humidity;BME280_pressure;Samples;Min_cycle;Max_cycle;Signal;HPM_P1;HPM_P2
2022/07/31 00:01:11;;;;;;;29.60;12.55;;;;;;;14.71;67.31;99446.41;5033243;28;20429;-64
2022/07/31 00:03:37;;;;;;;26.35;12.75;;;;;;;14.69;68.13;99435.19;5050842;28;20078;-65
2022/07/31 00:06:03;;;;;;;21.08;11.35;;;;;;;14.68;67.93;99441.63;5051079;28;20041;-63
2022/07/31 00:08:28;;;;;;;21.05;10.43;;;;;;;14.66;67.68;99437.59;5050680;28;20071;-64
2022/07/31 00:10:54;;;;;;;22.15;10.52;;;;;;;14.63;67.98;99435.47;5066477;28;20106;-64
2022/07/31 00:13:19;;;;;;;24.33;11.75;;;;;;;14.63;68.66;99436.25;5069617;28;20094;-65
2022/07/31 00:15:45;;;;;;;22.65;10.73;;;;;;;14.60;68.69;99438.66;5071491;28;20053;-64
2022/07/31 00:18:11;;;;;;;28.25;12.20;;;;;;;14.57;69.09;99433.84;5061086;28;20037;-65
2022/07/31 00:20:36;;;;;;;31.88;13.02;;;;;;;14.50;69.56;99436.69;5051908;28;20288;-64
2022/07/31 00:23:03;;;;;;;34.65;13.10;;;;;;;14.44;69.03;99443.09;5050747;28;20037;-64
2022/07/31 00:25:29;;;;;;;23.48;12.18;;;;;;;14.36;69.64;99438.28;5051229;28;20041;-65
2022/07/31 00:27:55;;;;;;;30.80;12.30;;;;;;;14.32;69.54;99435.31;5033414;28;20037;-65
2022/07/31 00:30:21;;;;;;;21.77;9.80;;;;;;;14.32;69.24;99435.31;5059746;28;20090;-64
2022/07/31 00:32:46;;;;;;;14.40;8.55;;;;;;;14.28;67.85;99440.34;5052823;28;20127;-64
2022/07/31 00:35:12;;;;;;;12.82;8.18;;;;;;;14.26;68.21;99437.13;5070950;28;20131;-64
2022/07/31 00:37:40;;;;;;;14.90;8.75;;;;;;;14.22;68.13;99438.75;5026369;28;20037;-66
2022/07/31 00:40:07;;;;;;;13.70;8.80;;;;;;;14.20;68.63;99432.84;5014430;28;20056;-64
2022/07/31 00:42:32;;;;;;;20.42;10.35;;;;;;;14.16;69.05;99437.09;5032894;28;20510;-65
2022/07/31 00:44:58;;;;;;;22.13;10.13;;;;;;;14.08;69.78;99430.41;5050283;28;20127;-64
2022/07/31 00:47:24;;;;;;;18.10;9.88;;;;;;;14.03;69.62;99438.38;5049918;28;20423;-64
2022/07/31 00:49:49;;;;;;;21.67;10.23;;;;;;;14.02;69.30;99438.63;5050790;28;20064;-65
2022/07/31 00:52:15;;;;;;;19.98;10.68;;;;;;;14.01;69.55;99437.84;5049626;28;20041;-64
2022/07/31 00:54:41;;;;;;;13.90;8.10;;;;;;;14.02;68.85;99435.97;5032613;28;20049;-65
2022/07/31 00:57:06;;;;;;;12.48;8.68;;;;;;;14.09;68.79;99439.22;5032217;28;20056;-64
2022/07/31 00:59:32;;;;;;;13.18;8.68;;;;;;;14.10;68.69;99430.16;5016190;28;20088;-65
2022/07/31 01:01:58;;;;;;;15.13;8.32;;;;;;;14.10;68.66;99438.16;5050686;28;20506;-65
2022/07/31 01:04:25;;;;;;;13.18;8.40;;;;;;;14.09;68.63;99441.88;5049495;28;20127;-64
2022/07/31 01:06:54;;;;;;;22.45;9.13;;;;;;;14.09;69.07;99441.88;5049184;28;20553;-64
2022/07/31 01:09:20;;;;;;;15.77;9.70;;;;;;;14.06;69.37;99448.53;5050458;28;20052;-64
2022/07/31 01:12:17;;;;;;;17.77;10.73;;;;;;;14.03;69.65;99445.56;5049482;28;20540;-65
2022/07/31 01:14:48;;;;;;;16.45;7.60;;;;;;;14.04;68.53;99450.66;5050434;28;20095;-65
2022/07/31 01:17:16;;;;;;;13.07;7.63;;;;;;;14.01;68.74;99443.16;5036462;28;20127;-64
2022/07/31 01:19:44;;;;;;;16.73;9.23;;;;;;;13.97;68.85;99439.44;5035861;28;20048;-64
2022/07/31 01:22:41;;;;;;;21.15;9.27;;;;;;;13.97;68.61;99444.75;5052603;28;20040;-64
2022/07/31 01:25:31;;;;;;;10.95;7.47;;;;;;;13.96;68.35;99442.34;5072384;28;20052;-65
2022/07/31 01:28:55;;;;;;;13.48;7.07;;;;;;;13.97;68.48;99438.59;5055803;28;20052;-64
2022/07/31 01:31:29;;;;;;;11.13;6.60;;;;;;;14.03;68.02;99445.56;5039612;28;20174;-64
2022/07/31 01:34:04;;;;;;;13.82;7.03;;;;;;;14.03;68.16;99442.91;5055707;28;20048;-61
2022/07/31 01:36:33;;;;;;;8.02;6.20;;;;;;;14.09;68.01;99442.69;5073635;28;20037;-62
2022/07/31 01:39:00;;;;;;;9.13;5.73;;;;;;;14.22;67.47;99445.94;5055676;28;20595;-63
2022/07/31 01:41:29;;;;;;;8.98;5.82;;;;;;;14.40;66.53;99442.81;5023845;28;20287;-64
2022/07/31 01:43:57;;;;;;;8.52;5.80;;;;;;;14.61;66.19;99440.25;5035683;28;20048;-65
2022/07/31 01:46:25;;;;;;;7.63;5.82;;;;;;;14.81;65.01;99442.97;5035556;28;20060;-65
2022/07/31 01:48:53;;;;;;;7.40;4.97;;;;;;;15.04;64.20;99438.22;5035007;28;20036;-65
2022/07/31 01:51:20;;;;;;;10.77;5.78;;;;;;;15.24;63.80;99440.09;5035182;28;20111;-64
2022/07/31 01:53:47;;;;;;;11.93;6.30;;;;;;;15.41;63.61;99437.94;5018783;28;20056;-64
2022/07/31 01:56:16;;;;;;;12.73;6.93;;;;;;;15.67;62.73;99442.22;5051618;28;20067;-63
2022/07/31 01:58:43;;;;;;;8.35;4.57;;;;;;;15.87;61.08;99433.38;5035337;28;20041;-64
2022/07/31 02:01:22;;;;;;;11.45;5.63;;;;;;;16.28;60.41;99445.81;5062074;28;20067;-63
2022/07/31 02:03:48;;;;;;;8.75;5.75;;;;;;;16.55;59.30;99443.56;5054974;28;20036;-63
2022/07/31 02:06:15;;;;;;;10.07;5.97;;;;;;;16.83;58.88;99445.88;5022453;28;20135;-63
2022/07/31 02:08:44;;;;;;;10.65;5.53;;;;;;;17.14;57.76;99441.91;5073358;28;20036;-65
2022/07/31 02:11:12;;;;;;;;;;;;;;;17.34;57.30;99446.31;5039245;28;20501;-64
2022/07/31 02:13:38;;;;;;;10.20;6.78;;;;;;;17.50;56.90;99441.63;5054972;28;19963;-63
2022/07/31 02:16:04;;;;;;;15.57;7.03;;;;;;;17.68;56.28;99440.13;5046406;28;20111;-63
2022/07/31 02:18:31;;;;;;;9.35;6.00;;;;;;;17.63;56.12;99446.31;5054658;28;20036;-64
2022/07/31 02:21:13;;;;;;;10.65;7.38;;;;;;;17.62;56.33;99438.59;5057298;28;20052;-63
2022/07/31 02:23:39;;;;;;;8.55;4.75;;;;;;;17.92;54.85;99438.28;5072729;28;20040;-64
2022/07/31 02:26:06;;;;;;;6.00;4.22;;;;;;;18.08;53.61;99446.16;5054415;28;20033;-63
2022/07/31 02:28:34;;;;;;;8.70;4.70;;;;;;;18.05;53.72;99438.69;5054602;28;20048;-64
2022/07/31 02:31:00;;;;;;;7.63;4.30;;;;;;;18.02;53.52;99436.59;5038172;28;20044;-64
2022/07/31 02:33:26;;;;;;;6.07;4.30;;;;;;;17.86;54.07;99439.44;5038343;28;20090;-63
2022/07/31 02:35:54;;;;;;;4.78;3.25;;;;;;;17.61;54.29;99428.91;5072344;28;20045;-63
2022/07/31 02:38:22;;;;;;;4.03;3.15;;;;;;;17.45;54.63;99428.28;5054371;28;20064;-64
2022/07/31 02:40:50;;;;;;;7.03;3.70;;;;;;;17.43;54.82;99428.53;5038203;28;20410;-64
2022/07/31 02:43:16;;;;;;;5.43;3.97;;;;;;;17.96;53.95;99435.03;5072404;28;20047;-64
2022/07/31 02:45:42;;;;;;;7.88;5.53;;;;;;;18.02;53.84;99437.38;5054345;28;20151;-63
2022/07/31 02:48:08;;;;;;;7.80;5.13;;;;;;;17.83;54.43;99440.00;5054220;28;20075;-64
2022/07/31 02:50:38;;;;;;;8.30;5.63;;;;;;;17.63;55.02;99432.13;5054212;28;20102;-64
2022/07/31 02:53:05;;;;;;;13.43;5.93;;;;;;;17.57;55.69;99427.91;5054673;28;20051;-64
2022/07/31 02:55:31;;;;;;;9.38;5.95;;;;;;;18.13;54.40;99430.03;5027906;28;20056;-63
2022/07/31 02:57:57;;;;;;;8.73;5.88;;;;;;;18.41;53.54;99435.59;5015061;28;20104;-63
2022/07/31 03:00:25;;;;;;;10.98;6.00;;;;;;;18.35;53.52;99438.34;5051087;28;20036;-63
2022/07/31 03:02:53;;;;;;;12.95;6.35;;;;;;;18.89;52.50;99428.25;5049952;28;20036;-63
2022/07/31 03:05:19;;;;;;;15.27;6.72;;;;;;;19.14;51.72;99427.06;5053830;28;20052;-63
2022/07/31 03:07:45;;;;;;;13.70;9.80;;;;;;;19.21;51.07;99434.75;5072376;28;20068;-63
2022/07/31 03:10:14;;;;;;;18.27;9.75;;;;;;;19.62;51.07;99434.06;5038904;28;20525;-63
2022/07/31 03:12:59;;;;;;;8.65;5.53;;;;;;;20.30;48.55;99437.94;5041505;28;20490;-64
2022/07/31 03:15:28;;;;;;;9.80;5.30;;;;;;;20.76;46.87;99443.16;5016524;28;20107;-63
2022/07/31 03:17:54;;;;;;;7.30;5.95;;;;;;;21.20;46.42;99436.22;5014303;28;20120;-64
2022/07/31 03:20:30;;;;;;;11.50;6.07;;;;;;;21.02;46.75;99448.78;5015863;28;20045;-63
2022/07/31 03:22:55;;;;;;;11.30;6.38;;;;;;;20.48;48.02;99438.91;5030636;28;20100;-64
2022/07/31 03:25:22;;;;;;;15.05;7.70;;;;;;;20.31;49.38;99452.97;5059383;28;20060;-63
2022/07/31 03:27:49;;;;;;;11.75;7.20;;;;;;;20.56;48.88;99448.97;5070494;28;20040;-64
2022/07/31 03:30:22;;;;;;;10.93;7.00;;;;;;;21.02;47.70;99439.91;5063557;28;20040;-64
2022/07/31 03:32:48;;;;;;;10.13;5.43;;;;;;;21.50;46.09;99444.69;5034156;28;20036;-63
2022/07/31 03:35:14;;;;;;;9.63;4.47;;;;;;;21.54;44.90;99446.47;5035312;28;20521;-64
2022/07/31 03:37:39;;;;;;;8.90;5.13;;;;;;;21.83;44.60;99452.50;5052243;28;20040;-64
2022/07/31 03:40:07;;;;;;;10.40;5.25;;;;;;;22.08;44.30;99445.59;5070004;28;20502;-63
2022/07/31 03:42:32;;;;;;;11.10;5.85;;;;;;;22.21;45.36;99455.53;5061655;28;20049;-64
2022/07/31 03:44:58;;;;;;;10.35;6.75;;;;;;;22.39;45.80;99454.47;5041158;28;20371;-63
2022/07/31 03:47:25;;;;;;;12.88;6.47;;;;;;;22.68;45.45;99453.09;5070294;28;20083;-65
2022/07/31 03:49:50;;;;;;;9.38;5.82;;;;;;;22.93;44.32;99458.84;5053375;28;20048;-66
2022/07/31 03:52:16;;;;;;;13.02;6.63;;;;;;;22.75;45.46;99458.81;5053067;28;20414;-64
2022/07/31 03:54:43;;;;;;;13.50;6.53;;;;;;;22.60;45.80;99460.06;5053259;28;20054;-65
2022/07/31 03:57:15;;;;;;;11.00;5.97;;;;;;;22.13;46.92;99457.06;5054452;28;20036;-64
2022/07/31 03:59:42;;;;;;;12.15;6.53;;;;;;;22.14;46.86;99457.84;5052933;28;20460;-64
2022/07/31 04:02:09;;;;;;;8.98;5.78;;;;;;;22.40;46.23;99460.66;5037222;28;20043;-64
2022/07/31 04:04:42;;;;;;;12.60;5.50;;;;;;;22.63;46.22;99453.25;5044929;28;20477;-65
2022/07/31 04:07:08;;;;;;;9.85;5.90;;;;;;;22.96;46.36;99466.34;5053651;28;20472;-65
2022/07/31 04:09:34;;;;;;;8.68;5.07;;;;;;;23.23;44.28;99449.78;5052630;28;20501;-62
2022/07/31 04:12:03;;;;;;;9.07;4.40;;;;;;;23.58;43.45;99455.91;5068520;28;20041;-64
2022/07/31 04:14:29;;;;;;;5.82;3.63;;;;;;;23.90;41.53;99451.06;5070201;28;20052;-64
2022/07/31 04:16:55;;;;;;;5.50;3.47;;;;;;;24.08;40.23;99446.38;5069069;28;20127;-63
2022/07/31 04:19:22;;;;;;;11.65;4.43;;;;;;;24.32;40.90;99455.81;5069288;28;20047;-65
2022/07/31 04:21:49;;;;;;;11.18;4.30;;;;;;;24.44;39.93;99455.94;5070059;28;20067;-65
2022/07/31 04:24:17;;;;;;;15.48;4.82;;;;;;;24.63;39.77;99459.00;5066362;28;20041;-66
2022/07/31 04:27:03;;;;;;;14.32;4.63;;;;;;;24.23;40.45;99455.88;5036297;28;20124;-65
2022/07/31 04:29:38;;;;;;;11.27;3.80;;;;;;;23.46;41.57;99446.88;5018073;28;20087;-65
2022/07/31 04:32:04;;;;;;;7.03;2.90;;;;;;;23.12;40.97;99456.66;5039302;28;20484;-64
2022/07/31 04:34:50;;;;;;;8.95;3.67;;;;;;;23.39;42.02;99457.41;5052556;28;20076;-65
2022/07/31 04:37:15;;;;;;;6.95;3.85;;;;;;;23.64;42.05;99459.25;5071213;28;20361;-65
2022/07/31 04:39:42;;;;;;;9.73;4.47;;;;;;;23.68;45.98;99454.81;5053085;28;20387;-66
2022/07/31 04:42:08;;;;;;;7.25;4.35;;;;;;;23.64;46.88;99455.75;5052262;28;20561;-65
2022/07/31 04:44:34;;;;;;;6.72;3.80;;;;;;;23.87;45.18;99453.66;5059714;28;20076;-65
2022/07/31 04:47:04;;;;;;;6.68;3.75;;;;;;;24.21;45.03;99461.63;5032134;28;20132;-64
2022/07/31 04:49:33;;;;;;;9.20;4.60;;;;;;;24.04;45.04;99469.81;5033222;28;20045;-64
2022/07/31 04:52:01;;;;;;;6.90;3.85;;;;;;;24.12;44.27;99460.06;5049285;28;20067;-64
2022/07/31 04:54:27;;;;;;;5.30;4.07;;;;;;;24.38;44.27;99460.72;5049285;28;20478;-63
2022/07/31 04:56:54;;;;;;;8.90;4.55;;;;;;;24.43;43.42;99457.06;5037638;28;20047;-66
2022/07/31 04:59:21;;;;;;;6.00;3.90;;;;;;;24.54;42.79;99454.78;5053024;28;20048;-64
2022/07/31 05:01:49;;;;;;;4.38;3.17;;;;;;;24.39;42.17;99456.13;5036585;28;20044;-65
2022/07/31 05:04:19;;;;;;;6.38;4.00;;;;;;;24.21;43.07;99456.22;5053241;28;20048;-64
2022/07/31 05:06:47;;;;;;;10.13;4.30;;;;;;;23.97;43.64;99462.22;5056409;28;20119;-65
2022/07/31 05:09:18;;;;;;;4.90;3.00;;;;;;;23.89;41.52;99463.03;5056725;28;20048;-63
2022/07/31 05:11:45;;;;;;;4.75;3.42;;;;;;;23.81;42.86;99463.84;5071267;28;20140;-64
2022/07/31 05:14:12;;;;;;;8.77;6.40;;;;;;;23.85;42.66;99459.38;5074304;28;20048;-63
2022/07/31 05:16:38;;;;;;;8.77;5.07;;;;;;;23.87;42.20;99459.84;5072191;28;20075;-65
2022/07/31 05:19:06;;;;;;;5.68;3.55;;;;;;;23.87;41.83;99459.84;5036632;28;20069;-64
2022/07/31 05:21:49;;;;;;;4.88;3.20;;;;;;;23.78;41.91;99459.09;5034398;28;20087;-65
2022/07/31 05:24:28;;;;;;;6.38;3.35;;;;;;;23.56;42.32;99454.69;5023125;28;20140;-65
2022/07/31 05:27:05;;;;;;;4.18;3.40;;;;;;;23.46;42.62;99447.69;5053037;28;20044;-66
2022/07/31 05:29:32;;;;;;;6.90;3.30;;;;;;;23.40;43.96;99443.56;5051972;28;20041;-66
2022/07/31 05:31:57;;;;;;;3.72;3.20;;;;;;;23.20;43.06;99442.31;5035766;28;20119;-66
2022/07/31 05:34:23;;;;;;;4.72;3.20;;;;;;;23.02;43.43;99440.72;5035707;28;20391;-65
2022/07/31 05:36:49;;;;;;;4.93;2.97;;;;;;;22.86;43.55;99443.09;5053597;28;20041;-65
2022/07/31 05:39:16;;;;;;;5.18;2.60;;;;;;;22.64;42.30;99441.31;5069324;28;20049;-65
2022/07/31 05:42:01;;;;;;;4.22;2.78;;;;;;;22.57;42.75;99433.69;5072674;28;20052;-65
2022/07/31 05:44:45;;;;;;;3.47;2.92;;;;;;;22.37;43.72;99426.97;5073791;28;20101;-64
2022/07/31 05:47:11;;;;;;;3.85;2.80;;;;;;;22.16;44.42;99428.66;5054116;28;20063;-64
2022/07/31 05:49:37;;;;;;;3.25;2.83;;;;;;;22.08;43.49;99430.19;5071973;28;20045;-63
2022/07/31 05:52:05;;;;;;;3.08;2.20;;;;;;;22.00;42.66;99423.69;5043874;28;20056;-63
2022/07/31 05:54:31;;;;;;;3.72;2.30;;;;;;;21.92;42.91;99427.13;5052843;28;20498;-63
2022/07/31 05:57:17;;;;;;;6.15;3.80;;;;;;;22.07;43.91;99425.91;5031540;28;20049;-64
2022/07/31 05:59:45;;;;;;;4.95;2.38;;;;;;;22.13;44.54;99432.75;5021706;28;20132;-63
2022/07/31 06:02:11;;;;;;;3.72;2.38;;;;;;;22.16;43.61;99434.03;5055733;28;20041;-64
2022/07/31 06:05:06;;;;;;;5.30;2.20;;;;;;;22.19;42.53;99430.75;4999516;28;20742;-62
2022/07/31 06:07:32;;;;;;;5.68;1.98;;;;;;;22.18;41.79;99426.47;5035699;28;20040;-65
2022/07/31 06:09:58;;;;;;;2.03;1.73;;;;;;;22.14;41.71;99428.16;5051745;28;20494;-64
2022/07/31 06:12:24;;;;;;;3.13;1.90;;;;;;;22.11;42.03;99426.88;5051805;28;20187;-64
2022/07/31 06:14:49;;;;;;;4.28;2.10;;;;;;;22.10;41.25;99425.28;5035357;28;20099;-64
2022/07/31 06:17:30;;;;;;;2.28;1.67;;;;;;;22.14;40.85;99426.25;5050392;28;20049;-64
2022/07/31 06:19:56;;;;;;;2.15;1.27;;;;;;;22.17;41.06;99422.16;5041043;28;20055;-65
2022/07/31 06:22:22;;;;;;;2.10;1.70;;;;;;;22.18;41.73;99426.47;5054463;28;20422;-65
2022/07/31 06:24:48;;;;;;;2.13;1.40;;;;;;;22.20;40.44;99421.53;5038356;28;20037;-63
2022/07/31 06:27:16;;;;;;;2.08;1.55;;;;;;;22.18;39.98;99415.66;5054800;28;20041;-64
2022/07/31 06:29:41;;;;;;;1.63;1.33;;;;;;;22.23;38.71;99426.31;5037296;28;20041;-62
2022/07/31 06:32:08;;;;;;;1.38;1.27;;;;;;;22.31;38.65;99424.75;5056426;28;20033;-66
2022/07/31 06:34:33;;;;;;;2.85;1.55;;;;;;;22.27;39.02;99423.78;5044709;28;20410;-65
2022/07/31 06:36:59;;;;;;;2.38;1.67;;;;;;;22.32;38.14;99420.94;5034901;28;20040;-64
2022/07/31 06:39:25;;;;;;;1.50;1.40;;;;;;;22.35;39.13;99420.28;5051307;28;20442;-65
2022/07/31 06:42:29;;;;;;;2.00;1.58;;;;;;;22.35;39.10;99418.38;5038701;28;20038;-63
2022/07/31 06:45:05;;;;;;;3.65;1.50;;;;;;;22.33;38.29;99420.63;5072884;28;20520;-64
2022/07/31 06:47:36;;;;;;;2.10;1.40;;;;;;;22.46;38.60;99413.50;5070907;28;20075;-62
2022/07/31 06:50:21;;;;;;;1.85;1.70;;;;;;;22.52;38.48;99414.91;5014659;28;20465;-65
2022/07/31 06:53:04;;;;;;;2.92;1.70;;;;;;;22.36;37.98;99414.59;5030333;28;20511;-64
2022/07/31 06:55:34;;;;;;;;;;;;;;;22.22;37.28;99414.72;5046232;28;20521;-64
2022/07/31 06:58:00;;;;;;;2.33;2.13;;;;;;;22.09;37.86;99415.63;5052064;28;20014;-63
2022/07/31 07:00:26;;;;;;;2.67;1.77;;;;;;;22.05;38.03;99409.22;5051087;28;20045;-66
2022/07/31 07:02:52;;;;;;;5.93;2.00;;;;;;;22.14;39.77;99418.16;5050714;28;20044;-64
2022/07/31 07:05:18;;;;;;;3.47;1.40;;;;;;;22.34;37.51;99416.81;5050773;28;20044;-63
2022/07/31 07:07:47;;;;;;;1.10;1.00;;;;;;;22.53;36.14;99410.31;5038704;28;20175;-64
2022/07/31 07:10:13;;;;;;;2.00;1.17;;;;;;;22.78;36.68;99406.84;5014446;28;20549;-63
2022/07/31 07:13:02;;;;;;;1.52;1.10;;;;;;;23.06;36.31;99401.13;5011928;28;20099;-63
2022/07/31 07:15:32;;;;;;;3.35;1.83;;;;;;;23.33;35.87;99405.41;5026875;28;20521;-65
2022/07/31 07:17:57;;;;;;;2.88;1.30;;;;;;;23.65;35.17;99401.31;5018124;28;20038;-62
2022/07/31 07:20:50;;;;;;;4.65;1.33;;;;;;;24.05;33.83;99400.22;5024589;28;20061;-63
2022/07/31 07:23:15;;;;;;;1.90;1.20;;;;;;;24.33;33.31;99400.53;5050543;28;20417;-64
2022/07/31 07:25:50;;;;;;;3.53;1.55;;;;;;;24.43;33.07;99405.59;5017393;28;20502;-62
2022/07/31 07:28:16;;;;;;;1.98;1.00;;;;;;;24.51;31.85;99402.03;5052047;28;20045;-62
2022/07/31 07:30:42;;;;;;;1.48;1.25;;;;;;;24.62;31.71;99402.41;5033905;28;20506;-62
2022/07/31 07:33:07;;;;;;;2.95;1.10;;;;;;;24.75;31.34;99395.94;5034030;28;20040;-63
2022/07/31 07:35:33;;;;;;;1.42;1.20;;;;;;;24.73;30.53;99397.41;5032933;28;20040;-64
2022/07/31 07:37:59;;;;;;;1.67;1.40;;;;;;;24.46;30.23;99400.31;5033679;28;20032;-64
2022/07/31 07:40:25;;;;;;;1.17;1.02;;;;;;;24.18;30.55;99400.00;5034832;28;20140;-63
2022/07/31 07:42:52;;;;;;;2.60;1.17;;;;;;;24.04;30.20;99394.00;5032385;28;20036;-63
2022/07/31 07:45:17;;;;;;;2.03;1.20;;;;;;;23.97;30.86;99393.72;5060719;28;20094;-64
2022/07/31 07:47:43;;;;;;;2.65;1.35;;;;;;;24.02;32.22;99394.31;5052253;28;20056;-64
2022/07/31 07:50:09;;;;;;;1.30;1.20;;;;;;;24.12;32.27;99395.88;5068720;28;20041;-65
2022/07/31 07:53:01;;;;;;;3.30;1.40;;;;;;;24.15;32.24;99394.41;4990423;28;20064;-65
2022/07/31 07:55:47;;;;;;;1.55;1.25;;;;;;;24.19;31.78;99395.38;5056773;28;20514;-64
2022/07/31 07:58:51;;;;;;;3.25;1.50;;;;;;;24.15;32.00;99389.00;4988999;28;20050;-65
2022/07/31 08:01:37;;;;;;;3.38;1.60;;;;;;;24.31;32.64;99389.25;5006640;28;20470;-64
2022/07/31 08:04:14;;;;;;;2.88;1.45;;;;;;;24.43;31.86;99398.25;5026504;28;20560;-65
2022/07/31 08:06:40;;;;;;;6.90;1.30;;;;;;;24.46;32.08;99399.50;5033158;28;20045;-64
2022/07/31 08:09:05;;;;;;;2.17;1.33;;;;;;;24.44;31.46;99399.84;5050932;28;20036;-65
2022/07/31 08:11:51;;;;;;;2.28;1.20;;;;;;;24.42;32.22;99395.84;5050546;28;20061;-64
2022/07/31 08:14:37;;;;;;;1.38;1.27;;;;;;;24.37;32.03;99394.13;5033005;28;20049;-64
2022/07/31 08:17:21;;;;;;;2.75;1.60;;;;;;;24.36;32.75;99389.06;5051218;28;20072;-64
2022/07/31 08:19:47;;;;;;;4.75;1.85;;;;;;;24.32;32.17;99390.81;5033467;28;20044;-64
2022/07/31 08:22:14;;;;;;;6.22;1.98;;;;;;;24.18;33.26;99397.28;5049756;28;20405;-63
2022/07/31 08:24:40;;;;;;;2.42;1.50;;;;;;;24.04;35.68;99402.13;5033010;28;20395;-64
2022/07/31 08:27:24;;;;;;;2.97;1.70;;;;;;;23.84;36.92;99394.75;5049234;28;20053;-64
2022/07/31 08:29:51;;;;;;;4.13;1.50;;;;;;;23.54;36.19;99400.09;5032859;28;20047;-65
2022/07/31 08:32:18;;;;;;;1.65;1.30;;;;;;;23.42;36.21;99399.97;5050531;28;20045;-63
2022/07/31 08:35:04;;;;;;;1.85;1.40;;;;;;;23.34;35.87;99388.03;5054971;28;20049;-65
2022/07/31 08:37:30;;;;;;;2.90;1.40;;;;;;;23.05;36.55;99396.84;5053911;28;20182;-65
2022/07/31 08:39:57;;;;;;;2.67;1.50;;;;;;;22.89;35.87;99389.19;5053942;28;20045;-63
2022/07/31 08:42:23;;;;;;;1.92;1.40;;;;;;;22.86;36.77;99397.16;5037220;28;20045;-63
2022/07/31 08:44:49;;;;;;;1.50;1.30;;;;;;;22.86;36.85;99389.03;5037163;28;20051;-63
2022/07/31 08:47:17;;;;;;;1.98;1.20;;;;;;;23.02;36.02;99390.16;5020236;28;20529;-64
2022/07/31 08:49:45;;;;;;;2.40;1.38;;;;;;;23.08;36.22;99391.59;5020108;28;20136;-64
2022/07/31 08:52:18;;;;;;;1.33;1.23;;;;;;;23.09;36.21;99393.19;5053216;28;20052;-64
2022/07/31 08:55:08;;;;;;;1.33;1.20;;;;;;;23.09;34.98;99387.78;5039618;28;20162;-64
2022/07/31 08:57:35;;;;;;;2.72;1.55;;;;;;;23.22;35.31;99386.00;5036691;28;20498;-63
2022/07/31 09:00:06;;;;;;;1.48;1.38;;;;;;;23.32;35.02;99382.16;5053194;28;20049;-64
2022/07/31 09:02:32;;;;;;;1.77;1.33;;;;;;;23.33;34.70;99387.25;5053229;28;20394;-64
2022/07/31 09:05:26;;;;;;;2.50;1.52;;;;;;;23.49;34.64;99387.50;5019322;28;20565;-64
2022/07/31 09:07:53;;;;;;;4.53;1.35;;;;;;;23.66;34.80;99383.97;5053522;28;20055;-64
2022/07/31 09:10:21;;;;;;;3.85;1.90;;;;;;;23.68;34.30;99381.72;5053322;28;20045;-65
2022/07/31 09:12:48;;;;;;;2.65;1.50;;;;;;;23.75;34.28;99379.34;5036362;28;20037;-64
2022/07/31 09:15:27;;;;;;;3.17;1.90;;;;;;;23.71;34.76;99378.41;5036239;28;20044;-64
2022/07/31 09:17:54;;;;;;;3.92;1.52;;;;;;;23.75;33.45;99370.44;5052831;28;20045;-64
2022/07/31 09:20:22;;;;;;;1.80;1.70;;;;;;;23.65;34.35;99376.16;5036508;28;20051;-65
2022/07/31 09:23:04;;;;;;;2.10;1.27;;;;;;;23.76;33.71;99370.09;5052586;28;20524;-63
2022/07/31 09:25:30;;;;;;;1.95;1.55;;;;;;;23.78;33.68;99359.72;5036244;28;20057;-63
2022/07/31 09:28:04;;;;;;;1.40;1.30;;;;;;;23.75;33.65;99363.09;5036336;28;20037;-63
2022/07/31 09:30:32;;;;;;;2.70;1.50;;;;;;;23.80;33.87;99362.91;5036325;28;20049;-64
2022/07/31 09:33:28;;;;;;;2.97;1.60;;;;;;;23.97;33.82;99369.34;4991932;28;20051;-63
2022/07/31 09:36:26;;;;;;;4.80;3.50;;;;;;;24.06;34.20;99359.28;4970970;28;20062;-64
2022/07/31 09:39:00;;;;;;;2.83;1.58;;;;;;;24.23;33.17;99369.19;4992066;28;20589;-63
2022/07/31 09:41:28;;;;;;;2.72;1.70;;;;;;;24.37;33.78;99361.63;5007976;28;20125;-65
2022/07/31 09:44:03;;;;;;;3.03;1.70;;;;;;;24.50;32.77;99362.50;4990296;28;20056;-65
2022/07/31 09:46:39;;;;;;;2.58;1.75;;;;;;;24.48;33.44;99362.84;4991932;28;20058;-64
2022/07/31 09:49:05;;;;;;;4.60;1.60;;;;;;;24.35;32.33;99360.34;4991900;28;20531;-65
2022/07/31 09:51:45;;;;;;;2.92;1.70;;;;;;;24.29;32.79;99372.50;5008325;28;20069;-65
2022/07/31 09:54:33;;;;;;;2.80;1.58;;;;;;;24.19;33.70;99377.19;4991575;28;20094;-64
2022/07/31 09:57:11;;;;;;;2.40;1.58;;;;;;;24.08;34.38;99375.97;4991997;28;20523;-64
2022/07/31 09:59:39;;;;;;;;;;;;;;;24.03;35.13;99387.00;4992122;28;20062;-63
2022/07/31 10:02:07;;;;;;;2.22;1.92;;;;;;;23.90;35.24;99377.19;4991796;28;19928;-63
2022/07/31 10:04:36;;;;;;;6.15;1.75;;;;;;;23.87;33.90;99380.56;5006320;28;20061;-64
2022/07/31 10:07:03;;;;;;;2.15;1.73;;;;;;;23.91;34.54;99378.78;5032372;28;20045;-64
2022/07/31 10:09:29;;;;;;;2.42;1.70;;;;;;;24.02;34.40;99377.28;5032158;28;20136;-64
2022/07/31 10:12:18;;;;;;;3.13;1.45;;;;;;;24.23;33.37;99378.09;5033584;28;20072;-64
2022/07/31 10:14:46;;;;;;;2.83;1.52;;;;;;;24.30;34.29;99374.91;5015245;28;20422;-64
2022/07/31 10:17:13;;;;;;;2.70;1.70;;;;;;;24.22;33.54;99375.75;5032305;28;20486;-64
2022/07/31 10:20:08;;;;;;;1.90;1.40;;;;;;;24.28;33.09;99373.66;5016350;28;20088;-64
2022/07/31 10:22:52;;;;;;;2.05;1.52;;;;;;;24.48;33.11;99376.38;5017357;28;20045;-64
2022/07/31 10:25:27;;;;;;;1.52;1.40;;;;;;;24.68;31.94;99369.38;5031979;28;20045;-65
2022/07/31 10:27:56;;;;;;;3.30;1.50;;;;;;;24.79;31.76;99363.53;5032054;28;20033;-64
2022/07/31 10:30:22;;;;;;;2.80;1.58;;;;;;;24.58;33.17;99372.47;5031856;28;20422;-64
2022/07/31 10:32:52;;;;;;;2.08;1.70;;;;;;;24.33;33.94;99368.81;5031731;28;20049;-65
2022/07/31 10:35:24;;;;;;;4.85;2.00;;;;;;;24.12;34.46;99373.41;5016174;28;20076;-63
2022/07/31 10:38:10;;;;;;;;;;;;;;;23.91;35.30;99367.94;5017342;28;20132;-64
2022/07/31 10:41:11;;;;;;;1.95;1.73;;;;;;;23.76;34.94;99367.38;5031988;28;20011;-64
2022/07/31 10:43:58;;;;;;;1.90;1.63;;;;;;;23.63;35.69;99379.19;4998721;28;20048;-64
2022/07/31 10:46:46;;;;;;;1.70;1.60;;;;;;;23.71;36.42;99369.50;5026308;28;20099;-64
2022/07/31 10:49:39;;;;;;;2.33;1.60;;;;;;;23.61;36.66;99369.81;5051899;28;20063;-65
2022/07/31 10:52:30;;;;;;;2.85;1.60;;;;;;;23.67;37.39;99365.81;5052498;28;20051;-64
2022/07/31 10:55:22;;;;;;;3.25;1.70;;;;;;;23.80;38.22;99372.97;5044300;28;20052;-64
2022/07/31 10:58:16;;;;;;;1.90;1.58;;;;;;;23.70;37.08;99362.47;5052059;28;20225;-64
2022/07/31 11:00:52;;;;;;;3.17;1.60;;;;;;;23.68;37.66;99362.78;5052501;28;20103;-63
2022/07/31 11:03:21;;;;;;;3.15;1.70;;;;;;;23.69;36.77;99358.97;5052198;28;20048;-64
2022/07/31 11:06:05;;;;;;;4.20;1.80;;;;;;;23.67;37.05;99352.28;5052622;28;20051;-63
2022/07/31 11:09:03;;;;;;;1.95;1.50;;;;;;;23.64;35.19;99348.31;5039633;28;20065;-64
2022/07/31 11:11:52;;;;;;;2.83;1.80;;;;;;;23.72;35.69;99355.63;5034301;28;20049;-64
2022/07/31 11:14:32;;;;;;;6.47;1.77;;;;;;;23.62;36.22;99347.84;5052119;28;20056;-64
2022/07/31 11:17:16;;;;;;;2.38;1.55;;;;;;;23.55;34.90;99342.13;5052207;28;20049;-63
2022/07/31 11:19:49;;;;;;;3.10;1.63;;;;;;;23.45;34.84;99337.88;5049558;28;20132;-62
2022/07/31 11:22:16;;;;;;;2.95;1.80;;;;;;;23.40;36.09;99335.34;5053425;28;20593;-65
2022/07/31 11:24:52;;;;;;;2.95;1.50;;;;;;;23.40;36.02;99334.56;5067372;28;20508;-62
2022/07/31 11:27:28;;;;;;;3.25;1.67;;;;;;;23.47;36.13;99340.25;5043647;28;20064;-64
2022/07/31 11:30:05;;;;;;;2.50;1.70;;;;;;;23.44;36.90;99330.91;5051726;28;20091;-63
2022/07/31 11:32:31;;;;;;;2.03;1.83;;;;;;;23.41;37.33;99341.56;5041476;28;20041;-63
2022/07/31 11:34:57;;;;;;;1.98;1.77;;;;;;;23.47;37.42;99337.56;5051455;28;20488;-64
2022/07/31 11:37:25;;;;;;;3.33;1.77;;;;;;;23.46;37.12;99335.97;5048751;28;20033;-65
2022/07/31 11:39:52;;;;;;;1.88;1.60;;;;;;;23.41;37.00;99330.72;5054007;28;20060;-64
2022/07/31 11:42:19;;;;;;;1.60;1.50;;;;;;;23.37;36.78;99336.00;5061343;28;20506;-64
2022/07/31 11:44:45;;;;;;;3.60;1.73;;;;;;;23.38;36.57;99332.16;5051473;28;20049;-64
2022/07/31 11:47:11;;;;;;;2.13;1.55;;;;;;;23.39;36.12;99338.41;5051017;28;20071;-63
2022/07/31 11:49:37;;;;;;;3.53;1.83;;;;;;;23.35;36.43;99341.75;5051231;28;20044;-64
2022/07/31 11:52:10;;;;;;;2.00;1.73;;;;;;;23.44;36.38;99338.19;5052481;28;20053;-64